Karluk, AK

7:03 PM AKDT on October 25, 2014 (GMT -0800)
Kodiak | Change Station
CLOSE
Current Station
Airport
Location: Kodiak,
Elevation: 112 ft
Nearby Weather Stations

Elev 112 ft 57.75 °N, 152.49 °W | Updated 10 minutes ago

Partly Cloudy
Partly Cloudy
33 °F
Feels Like 27 °F
N
7
Wind Variable Wind from West

Today
High -- | Low -- °F
--% Chance of Precip.
Yesterday
High -- | Low -- °F
Precip. -- in
9:15 AM 6:47 PM
Waxing Crescent, 5% visible
Pressure 29.84 in
Visibility 10.0 miles
Clouds Few 25000 ft
Windchill 27 °F
Dew Point 27 °F
Humidity 78%
Rainfall 0.00 in
Snow Depth Not available.
UV 0 out of 12
Pollen Not available.
Air Quality Not available.
Flu Activity Local Activity
METAR PADQ 260253Z 28006KT 10SM FEW250 01/M03 A2984 RMK AO2 SLP104 T00061028 55003

More Conditions Fewer Conditions

Pressure 29.84 in
Visibility 10.0 miles
Clouds Few 25000 ft
Windchill 27 °F
Dew Point 27 °F
Humidity 78%
Rainfall 0.00 in
Snow Depth Not available.
UV 0 out of 12
Pollen Not available.
Air Quality Not available.
Flu Activity Local Activity
METAR PADQ 260253Z 28006KT 10SM FEW250 01/M03 A2984 RMK AO2 SLP104 T00061028 55003

More Conditions Fewer Conditions

10-Day Weather Forecast

Almanac

Astronomy

Oct. 25, 2014 Rise Set
Actual Time 9:15 AM AKDT 6:47 PM AKDT
Civil Twilight 8:34 AM AKDT 7:28 PM AKDT
Nautical Twilight 7:49 AM AKDT 8:13 PM AKDT
Astronomical Twilight 7:04 AM AKDT 8:58 PM AKDT
Moon 11:23 AM AKDT (10/25) 7:58 PM AKDT (10/25)
Length of Visible Light 10h 53m
Length of Day
9h 32m
Tomorrow will be 4m 44s shorter.
Waxing Crescent, 5% of the Moon is Illuminated
Today
Waxing Crescent
Oct 30
First Quarter
Nov 6
Full
Nov 14
Last Quarter
Nov 22
New

Today's Extremes

State Highs State Lows

Community

WunderPhotos

Upload Photos

1,765,091 photos uploaded!

Nearby

Snow Depth

Station Depth Elevation
Port Graham 0 in 300 ft
Mcneil Canyon 1 in 1320 ft
Cooper Lake 0 in 1200 ft
Grouse Creek Divide 0 in 700 ft
Summit Creek 2 in 1400 ft

Earthquake Activity

City Distance Mag. Time & Date
No recent earthquake activity has been reported nearby.
Minimum magnitude displayed is 2.5.

Coastal Water Temperatures

Place Temperature
No Stations Reporting

Nearby Weather Stations